Time;durP1;ratioP1;P1;durP2;ratioP2;P2;SDS_P1;SDS_P2;PMS_P1;PMS_P2;Temp;Humidity;BMP_temperature;BMP_pressure;BME280_temperature;BME280_humidity;BME280_pressure;Samples;Min_cycle;Max_cycle;Signal;HPM_P1;HPM_P2
2023/06/30 00:00:38;;;;;;;;;;;;;;;15.55;88.32;101386.50;5080553;28;1080;-78
2023/06/30 00:03:04;;;;;;;;;;;;;;;15.55;88.48;101392.56;5080841;28;1318;-78
2023/06/30 00:05:29;;;;;;;;;;;;;;;15.48;88.24;101385.41;5084811;28;1280;-78
2023/06/30 00:07:54;;;;;;;;;;;;;;;15.45;88.50;101391.75;5084634;28;1219;-78
2023/06/30 00:10:20;;;;;;;;;;;;;;;15.39;88.36;101382.69;5083895;28;1161;-78
2023/06/30 00:12:45;;;;;;;;;;;;;;;15.37;88.33;101384.66;5086129;28;1288;-78
2023/06/30 00:15:11;;;;;;;;;;;;;;;15.35;88.77;101383.94;5083500;28;1902;-78
2023/06/30 00:17:36;;;;;;;;;;;;;;;15.29;88.74;101387.13;5081245;28;1190;-78
2023/06/30 00:20:05;;;;;;;;;;;;;;;15.26;88.78;101392.66;5080994;28;1461;-78
2023/06/30 00:22:31;;;;;;;;;;;;;;;15.24;88.60;101389.34;5088085;28;1261;-78
2023/06/30 00:24:58;;;;;;;;;;;;;;;15.24;88.69;101384.13;5081406;28;1285;-78
2023/06/30 00:27:23;;;;;;;;;;;;;;;15.21;88.71;101389.63;5080258;28;1256;-78
2023/06/30 00:29:48;;;;;;;;;;;;;;;15.13;89.15;101382.47;5082406;28;1030;-78
2023/06/30 00:32:14;;;;;;;;;;;;;;;15.12;88.67;101387.84;5075455;28;1287;-78
2023/06/30 00:34:40;;;;;;;;;;;;;;;15.03;88.74;101380.88;5084017;28;1898;-78
2023/06/30 00:37:05;;;;;;;;;;;;;;;14.98;88.65;101383.09;5076983;28;1257;-78
2023/06/30 00:39:30;;;;;;;;;;;;;;;14.94;88.96;101377.31;5083320;28;1358;-78
2023/06/30 00:41:56;;;;;;;;;;;;;;;14.98;88.55;101383.09;5081622;28;1094;-78
2023/06/30 00:44:21;;;;;;;;;;;;;;;14.97;88.66;101382.25;5080982;28;1568;-78
2023/06/30 00:46:46;;;;;;;;;;;;;;;14.97;89.19;101384.06;5083062;28;1097;-78
2023/06/30 00:49:11;;;;;;;;;;;;;;;14.98;89.15;101385.69;5088597;28;1099;-78
2023/06/30 00:51:37;;;;;;;;;;;;;;;14.97;88.61;101391.91;5082811;28;1230;-78
2023/06/30 00:54:02;;;;;;;;;;;;;;;14.95;88.70;101388.56;5082394;28;1955;-78
2023/06/30 00:56:28;;;;;;;;;;;;;;;14.91;88.78;101392.41;5084878;28;1258;-78
2023/06/30 00:58:53;;;;;;;;;;;;;;;14.87;88.61;101392.72;5087255;28;1277;-78
2023/06/30 01:01:41;;;;;;;;;;;;;;;14.85;88.43;101384.22;5086956;28;1243;-78
2023/06/30 01:04:16;;;;;;;;;;;;;;;14.82;88.98;101389.69;5084796;28;1290;-78
2023/06/30 01:06:48;;;;;;;;;;;;;;;14.79;88.93;101384.72;5088222;28;1465;-78
2023/06/30 01:09:15;;;;;;;;;;;;;;;14.78;88.44;101382.28;5079839;28;1157;-77
2023/06/30 01:11:41;;;;;;;;;;;;;;;14.72;88.11;101388.88;5081111;28;1234;-78
2023/06/30 01:14:07;;;;;;;;;;;;;;;14.69;88.29;101383.94;5085709;28;1898;-78
2023/06/30 01:16:34;;;;;;;;;;;;;;;14.65;88.01;101392.19;5078547;28;1218;-78
2023/06/30 01:19:01;;;;;;;;;;;;;;;14.64;88.54;101391.34;5075281;28;1108;-78
2023/06/30 01:21:28;;;;;;;;;;;;;;;14.65;88.56;101397.41;5077603;28;1326;-78
2023/06/30 01:24:04;;;;;;;;;;;;;;;14.67;88.42;101400.69;5081524;28;1295;-78
2023/06/30 01:26:34;;;;;;;;;;;;;;;14.65;87.96;101402.63;5082238;28;1557;-78
2023/06/30 01:28:59;;;;;;;;;;;;;;;14.62;88.26;101398.47;5076427;28;2442;-78
2023/06/30 01:31:25;;;;;;;;;;;;;;;14.60;87.92;101400.41;5075164;28;1310;-78
2023/06/30 01:33:50;;;;;;;;;;;;;;;14.58;88.05;101397.94;5076635;28;1339;-78
2023/06/30 01:36:15;;;;;;;;;;;;;;;14.55;88.18;101397.38;5081763;28;1941;-78
2023/06/30 01:38:40;;;;;;;;;;;;;;;14.52;88.12;101395.91;5081882;28;1174;-78
2023/06/30 01:41:08;;;;;;;;;;;;;;;14.52;88.07;101397.69;5084668;28;1414;-78
2023/06/30 01:43:34;;;;;;;;;;;;;;;14.51;88.21;101394.25;5080605;28;1353;-78
2023/06/30 01:45:59;;;;;;;;;;;;;;;14.48;88.84;101396.28;5078243;28;1953;-78
2023/06/30 01:48:25;;;;;;;;;;;;;;;14.39;88.11;101387.44;5083514;28;1207;-78
2023/06/30 01:50:51;;;;;;;;;;;;;;;14.33;88.08;101394.03;5084951;28;1440;-78
2023/06/30 01:53:16;;;;;;;;;;;;;;;14.30;88.08;101389.09;5083645;28;1192;-78
2023/06/30 01:55:52;;;;;;;;;;;;;;;14.26;88.20;101382.50;5082407;28;1905;-78
2023/06/30 01:58:17;;;;;;;;;;;;;;;14.23;87.88;101380.19;5081836;28;1041;-78
2023/06/30 02:00:42;;;;;;;;;;;;;;;14.23;88.03;101379.34;5083055;28;1117;-78
2023/06/30 02:03:08;;;;;;;;;;;;;;;14.22;88.05;101381.16;5081350;28;1408;-78
2023/06/30 02:05:33;;;;;;;;;;;;;;;14.20;88.28;101377.81;5083240;28;1262;-78
2023/06/30 02:07:58;;;;;;;;;;;;;;;14.20;88.22;101383.03;5081112;28;1330;-78
2023/06/30 02:10:25;;;;;;;;;;;;;;;14.17;88.10;101380.72;5080845;28;1303;-78
2023/06/30 02:12:50;;;;;;;;;;;;;;;14.15;88.48;101385.22;5075777;28;1761;-78
2023/06/30 02:15:15;;;;;;;;;;;;;;;14.12;88.10;101369.88;5080039;28;1965;-78
2023/06/30 02:17:40;;;;;;;;;;;;;;;14.14;88.17;101377.53;5075767;28;1663;-78
2023/06/30 02:20:06;;;;;;;;;;;;;;;14.13;88.09;101376.72;5083230;28;1096;-78
2023/06/30 02:22:31;;;;;;;;;;;;;;;14.09;88.36;101385.75;5080697;28;1515;-78
2023/06/30 02:24:56;;;;;;;;;;;;;;;14.04;88.07;101382.72;5076210;28;1133;-78
2023/06/30 02:27:22;;;;;;;;;;;;;;;14.01;87.92;101383.00;5082276;28;1132;-78
2023/06/30 02:29:47;;;;;;;;;;;;;;;13.97;88.07;101376.41;5070418;28;979;-78
2023/06/30 02:32:12;;;;;;;;;;;;;;;13.97;88.32;101376.41;5077916;28;1505;-78
2023/06/30 02:34:38;;;;;;;;;;;;;;;13.99;88.09;101379.69;5083425;28;1961;-78
2023/06/30 02:37:03;;;;;;;;;;;;;;;14.00;87.99;101373.53;5082794;28;1355;-78
2023/06/30 02:39:28;;;;;;;;;;;;;;;13.96;88.05;101379.97;5079224;28;1077;-78
2023/06/30 02:41:53;;;;;;;;;;;;;;;13.97;88.18;101371.19;5080313;28;1549;-78
2023/06/30 02:44:19;;;;;;;;;;;;;;;13.95;87.59;101384.38;5082609;28;1325;-78
2023/06/30 02:46:44;;;;;;;;;;;;;;;13.86;87.63;101379.13;5084314;28;1195;-78
2023/06/30 02:49:09;;;;;;;;;;;;;;;13.75;87.64;101383.47;5081603;28;1500;-78
2023/06/30 02:51:35;;;;;;;;;;;;;;;13.66;87.12;101379.06;5070774;28;1451;-78
2023/06/30 02:54:00;;;;;;;;;;;;;;;13.59;87.37;101377.94;5077680;28;1882;-78
2023/06/30 02:56:25;;;;;;;;;;;;;;;13.67;88.01;101391.13;5074444;28;1199;-77
2023/06/30 02:58:50;;;;;;;;;;;;;;;13.59;87.65;101393.59;5081381;28;1186;-77
2023/06/30 03:01:17;;;;;;;;;;;;;;;13.58;87.48;101393.69;5081642;28;1318;-78
2023/06/30 03:03:42;;;;;;;;;;;;;;;13.56;87.77;101404.25;5083962;28;1438;-78
2023/06/30 03:06:07;;;;;;;;;;;;;;;13.55;87.65;101402.63;5082392;28;1257;-78
2023/06/30 03:08:33;;;;;;;;;;;;;;;13.58;87.93;101391.91;5087190;28;1259;-78
2023/06/30 03:10:58;;;;;;;;;;;;;;;13.58;87.61;101391.91;5088162;28;1690;-77
2023/06/30 03:13:23;;;;;;;;;;;;;;;13.57;87.56;101390.28;5083559;28;1409;-78
2023/06/30 03:15:48;;;;;;;;;;;;;;;13.55;87.84;101398.22;5083116;28;1917;-78
2023/06/30 03:18:13;;;;;;;;;;;;;;;13.53;87.65;101394.94;5078253;28;1157;-78
2023/06/30 03:20:39;;;;;;;;;;;;;;;13.54;87.67;101400.97;5085068;28;1494;-78
2023/06/30 03:23:04;;;;;;;;;;;;;;;13.55;87.75;101393.00;5086326;28;1254;-77
2023/06/30 03:25:29;;;;;;;;;;;;;;;13.54;87.69;101390.53;5082712;28;1284;-77
2023/06/30 03:27:54;;;;;;;;;;;;;;;13.52;87.88;101392.44;5080801;28;1289;-77
2023/06/30 03:30:19;;;;;;;;;;;;;;;13.49;88.00;101390.09;5082455;28;1329;-78
2023/06/30 03:32:45;;;;;;;;;;;;;;;13.47;88.10;101399.81;5076215;28;1273;-78
2023/06/30 03:35:10;;;;;;;;;;;;;;;13.43;87.80;101395.84;5075700;28;1906;-78
2023/06/30 03:37:35;;;;;;;;;;;;;;;13.39;88.16;101386.63;5087066;28;1284;-78
2023/06/30 03:40:06;;;;;;;;;;;;;;;13.35;88.27;101390.44;5088650;28;1567;-78
2023/06/30 03:42:32;;;;;;;;;;;;;;;13.34;88.27;101387.00;5085709;28;1277;-77
2023/06/30 03:44:57;;;;;;;;;;;;;;;13.34;88.12;101384.41;5085412;28;1306;-77
2023/06/30 03:47:22;;;;;;;;;;;;;;;13.34;88.36;101379.19;5083599;28;1528;-78
2023/06/30 03:49:47;;;;;;;;;;;;;;;13.30;88.28;101388.22;5081801;28;1224;-78
2023/06/30 03:52:12;;;;;;;;;;;;;;;13.28;88.21;101385.75;5085781;28;1209;-78
2023/06/30 03:54:38;;;;;;;;;;;;;;;13.26;88.27;101374.63;5083918;28;1963;-77
2023/06/30 03:57:03;;;;;;;;;;;;;;;13.24;88.23;101386.13;5076982;28;1452;-77
2023/06/30 03:59:28;;;;;;;;;;;;;;;13.25;88.56;101380.81;5083590;28;1198;-77
2023/06/30 04:01:53;;;;;;;;;;;;;;;13.22;88.09;101375.84;5083695;28;1502;-77
2023/06/30 04:04:19;;;;;;;;;;;;;;;13.20;88.42;101375.13;5080146;28;1534;-78
2023/06/30 04:06:44;;;;;;;;;;;;;;;13.20;88.17;101377.72;5084232;28;1390;-78
2023/06/30 04:09:09;;;;;;;;;;;;;;;13.18;88.54;101379.63;5061171;28;1446;-77
2023/06/30 04:11:35;;;;;;;;;;;;;;;13.17;88.57;101375.38;5066591;28;1140;-77
2023/06/30 04:14:00;;;;;;;;;;;;;;;13.17;88.36;101374.53;5055072;28;1858;-77
2023/06/30 04:16:25;;;;;;;;;;;;;;;13.14;88.38;101378.25;5055488;28;1965;-78
2023/06/30 04:18:52;;;;;;;;;;;;;;;13.14;88.29;101373.03;5056109;28;1722;-77
2023/06/30 04:21:18;;;;;;;;;;;;;;;13.16;88.53;101371.09;5052066;28;1184;-79
2023/06/30 04:23:43;;;;;;;;;;;;;;;13.17;88.30;101372.75;5059094;28;1227;-78
2023/06/30 04:26:09;;;;;;;;;;;;;;;13.18;88.61;101378.78;5060416;28;1371;-78
2023/06/30 04:28:34;;;;;;;;;;;;;;;13.19;88.43;101381.28;5056076;28;1320;-78
2023/06/30 04:30:59;;;;;;;;;;;;;;;13.19;88.65;101370.88;5057363;28;1263;-78
2023/06/30 04:33:25;;;;;;;;;;;;;;;13.22;88.54;101375.00;5049435;28;1794;-78
2023/06/30 04:35:50;;;;;;;;;;;;;;;13.21;88.54;101382.00;5055670;28;1882;-78
2023/06/30 04:38:15;;;;;;;;;;;;;;;13.20;88.94;101372.50;5059689;28;1428;-78
2023/06/30 04:40:43;;;;;;;;;;;;;;;13.22;88.74;101370.63;5058870;28;1192;-78
2023/06/30 04:43:12;;;;;;;;;;;;;;;13.23;88.68;101367.06;5057841;28;1424;-79
2023/06/30 04:45:37;;;;;;;;;;;;;;;13.25;88.57;101375.59;5058821;28;1576;-79
2023/06/30 04:48:03;;;;;;;;;;;;;;;13.24;88.56;101368.72;5058491;28;1265;-79
2023/06/30 04:50:28;;;;;;;;;;;;;;;13.28;89.07;101364.91;5054319;28;1398;-79
2023/06/30 04:52:53;;;;;;;;;;;;;;;13.32;88.79;101369.88;5055980;28;1208;-79
2023/06/30 04:55:18;;;;;;;;;;;;;;;13.33;88.71;101372.34;5048489;28;1957;-79
2023/06/30 04:57:44;;;;;;;;;;;;;;;13.35;89.02;101380.84;5058160;28;1636;-79
2023/06/30 05:00:09;;;;;;;;;;;;;;;13.38;88.47;101382.38;5054964;28;1372;-79
2023/06/30 05:02:34;;;;;;;;;;;;;;;13.39;88.60;101371.00;5055666;28;1156;-79
2023/06/30 05:05:00;;;;;;;;;;;;;;;13.40;88.97;101383.06;5053784;28;1333;-79
2023/06/30 05:07:25;;;;;;;;;;;;;;;13.42;88.70;101375.94;5050180;28;1573;-79
2023/06/30 05:09:50;;;;;;;;;;;;;;;13.40;89.00;101370.84;5057806;28;1390;-79
2023/06/30 05:12:15;;;;;;;;;;;;;;;13.41;88.86;101382.09;5055764;28;1252;-79
2023/06/30 05:14:40;;;;;;;;;;;;;;;13.45;89.05;101381.72;5057011;28;1965;-79
2023/06/30 05:17:05;;;;;;;;;;;;;;;13.44;88.69;101374.03;5048304;28;1616;-79
2023/06/30 05:19:31;;;;;;;;;;;;;;;13.45;89.42;101370.47;5057945;28;1279;-79
2023/06/30 05:21:56;;;;;;;;;;;;;;;13.49;88.68;101372.69;5058720;28;1136;-80
2023/06/30 05:24:21;;;;;;;;;;;;;;;13.56;89.36;101372.97;5058441;28;1132;-79
2023/06/30 05:26:46;;;;;;;;;;;;;;;13.57;89.04;101377.22;5056768;28;1304;-79
2023/06/30 05:29:11;;;;;;;;;;;;;;;13.60;89.27;101374.38;5055057;28;1537;-79
2023/06/30 05:31:37;;;;;;;;;;;;;;;13.68;89.41;101382.34;5050521;28;927;-79
2023/06/30 05:34:02;;;;;;;;;;;;;;;13.73;89.10;101374.97;5058631;28;1181;-79
2023/06/30 05:36:28;;;;;;;;;;;;;;;13.78;89.36;101380.63;5048005;28;1894;-79
2023/06/30 05:38:53;;;;;;;;;;;;;;;13.81;89.02;101385.56;5057651;28;1268;-79
2023/06/30 05:41:22;;;;;;;;;;;;;;;13.90;88.93;101385.72;5050961;28;1153;-79
2023/06/30 05:43:47;;;;;;;;;;;;;;;13.91;89.10;101382.97;5065178;28;1282;-79
2023/06/30 05:46:12;;;;;;;;;;;;;;;13.96;89.59;101393.84;5057407;28;1241;-79
2023/06/30 05:48:37;;;;;;;;;;;;;;;14.02;89.77;101387.28;5056884;28;1215;-79
2023/06/30 05:51:03;;;;;;;;;;;;;;;14.10;89.19;101403.06;5055691;28;1106;-79
2023/06/30 05:53:28;;;;;;;;;;;;;;;14.14;89.47;101393.19;5054665;28;1255;-79
2023/06/30 05:55:55;;;;;;;;;;;;;;;14.21;89.37;101389.91;5054991;28;1891;-79
2023/06/30 05:58:20;;;;;;;;;;;;;;;14.29;89.13;101392.69;5057878;28;1251;-79
2023/06/30 06:00:45;;;;;;;;;;;;;;;14.36;89.07;101392.97;5055723;28;1482;-79
2023/06/30 06:03:11;;;;;;;;;;;;;;;14.44;88.99;101395.69;5059490;28;1649;-79
2023/06/30 06:05:36;;;;;;;;;;;;;;;14.54;88.74;101390.53;5054881;28;1722;-80
2023/06/30 06:08:01;;;;;;;;;;;;;;;14.57;88.31;101395.50;5060407;28;1219;-80
2023/06/30 06:10:30;;;;;;;;;;;;;;;14.63;88.50;101397.56;5056178;28;1115;-80
2023/06/30 06:12:58;;;;;;;;;;;;;;;14.73;88.30;101394.91;5053609;28;1230;-79
2023/06/30 06:15:23;;;;;;;;;;;;;;;14.80;87.75;101396.84;5056757;28;1894;-79
2023/06/30 06:17:48;;;;;;;;;;;;;;;14.89;87.60;101395.19;5057303;28;1279;-79
2023/06/30 06:20:13;;;;;;;;;;;;;;;14.95;86.48;101396.41;5052119;28;1256;-79
2023/06/30 06:22:39;;;;;;;;;;;;;;;14.99;86.47;101395.19;5057447;28;993;-79
2023/06/30 06:25:04;;;;;;;;;;;;;;;15.03;86.96;101396.56;5050739;28;1530;-79
2023/06/30 06:27:32;;;;;;;;;;;;;;;15.10;86.87;101389.78;5048242;28;1190;-79
2023/06/30 06:29:58;;;;;;;;;;;;;;;15.19;87.01;101391.53;5054827;28;1622;-79
2023/06/30 06:32:23;;;;;;;;;;;;;;;15.26;85.69;101387.44;5057432;28;1214;-79
2023/06/30 06:34:48;;;;;;;;;;;;;;;15.32;85.09;101392.09;5051308;28;1914;-79
2023/06/30 06:37:15;;;;;;;;;;;;;;;15.36;85.09;101398.66;5054254;28;2467;-79
2023/06/30 06:39:40;;;;;;;;;;;;;;;15.39;82.90;101393.16;5064543;28;1053;-79
2023/06/30 06:42:07;;;;;;;;;;;;;;;15.40;83.74;101394.78;5055177;28;1170;-79
2023/06/30 06:44:32;;;;;;;;;;;;;;;15.50;84.26;101396.56;5059210;28;1350;-79
2023/06/30 06:47:17;;;;;;;;;;;;;;;15.58;83.58;101396.66;5058528;28;1300;-79
2023/06/30 06:49:42;;;;;;;;;;;;;;;15.64;82.02;101396.94;5055373;28;1017;-79
2023/06/30 06:52:07;;;;;;;;;;;;;;;15.80;82.26;101390.28;5059696;28;1329;-79
2023/06/30 06:54:32;;;;;;;;;;;;;;;15.79;81.91;101389.44;5057035;28;1963;-79
2023/06/30 06:56:57;;;;;;;;;;;;;;;15.81;81.84;101392.72;5053295;28;1212;-79
2023/06/30 06:59:22;;;;;;;;;;;;;;;15.93;81.12;101404.66;5049541;28;1213;-79
2023/06/30 07:01:48;;;;;;;;;;;;;;;16.01;78.18;101390.84;5055122;28;1405;-79
2023/06/30 07:04:13;;;;;;;;;;;;;;;16.05;75.64;101401.84;5053721;28;1283;-79
2023/06/30 07:06:38;;;;;;;;;;;;;;;16.13;77.86;101407.16;5056409;28;1043;-79
2023/06/30 07:09:03;;;;;;;;;;;;;;;16.16;79.07;101399.00;5050934;28;1406;-79
2023/06/30 07:11:28;;;;;;;;;;;;;;;16.28;75.90;101402.25;5048016;28;1455;-79
2023/06/30 07:13:53;;;;;;;;;;;;;;;16.33;76.95;101392.97;5055576;28;1270;-79
2023/06/30 07:16:21;;;;;;;;;;;;;;;16.32;75.86;101393.94;5059600;28;1897;-79
2023/06/30 07:18:46;;;;;;;;;;;;;;;16.44;76.30;101395.38;5056765;28;1185;-79
2023/06/30 07:21:11;;;;;;;;;;;;;;;16.47;75.03;101391.66;5056713;28;1297;-79
2023/06/30 07:23:36;;;;;;;;;;;;;;;16.53;75.12;101388.44;5057331;28;1215;-79
2023/06/30 07:26:02;;;;;;;;;;;;;;;16.61;73.34;101385.88;5050270;28;1545;-79
2023/06/30 07:28:27;;;;;;;;;;;;;;;16.72;72.51;101392.69;5053155;28;1106;-79
2023/06/30 07:30:52;;;;;;;;;;;;;;;16.77;73.15;101400.94;5050994;28;1384;-79
2023/06/30 07:33:17;;;;;;;;;;;;;;;16.85;68.66;101406.22;5062363;28;1122;-79
2023/06/30 07:35:42;;;;;;;;;;;;;;;16.91;72.15;101403.00;5059814;28;1915;-79
2023/06/30 07:38:08;;;;;;;;;;;;;;;16.96;69.27;101411.22;5059443;28;1553;-79
2023/06/30 07:40:33;;;;;;;;;;;;;;;17.01;68.11;101407.34;5054594;28;1321;-79
2023/06/30 07:42:58;;;;;;;;;;;;;;;17.10;65.72;101416.91;5056333;28;1362;-79
2023/06/30 07:45:23;;;;;;;;;;;;;;;17.08;67.27;101410.97;5053881;28;1088;-79
2023/06/30 07:47:48;;;;;;;;;;;;;;;17.19;66.33;101402.88;5051370;28;1233;-79
2023/06/30 07:50:14;;;;;;;;;;;;;;;17.27;66.12;101408.19;5055521;28;1448;-79
2023/06/30 07:52:43;;;;;;;;;;;;;;;17.28;64.02;101409.00;5057573;28;1248;-79
2023/06/30 07:55:09;;;;;;;;;;;;;;;17.41;66.88;101399.72;5057843;28;2344;-79
2023/06/30 07:57:34;;;;;;;;;;;;;;;17.55;67.78;101402.72;5055552;28;1491;-79
2023/06/30 08:00:00;;;;;;;;;;;;;;;17.64;66.71;101407.06;5058272;28;1366;-79
2023/06/30 08:02:25;;;;;;;;;;;;;;;17.74;64.72;101407.78;5067067;28;1321;-80
2023/06/30 08:04:50;;;;;;;;;;;;;;;17.72;63.66;101402.72;5055104;28;1201;-80
2023/06/30 08:07:15;;;;;;;;;;;;;;;17.67;63.49;101398.88;5059285;28;1339;-80
2023/06/30 08:09:40;;;;;;;;;;;;;;;17.77;62.64;101405.66;5068935;28;1196;-80
2023/06/30 08:12:06;;;;;;;;;;;;;;;17.90;64.10;101400.00;5061597;28;1200;-80
2023/06/30 08:14:32;;;;;;;;;;;;;;;18.05;63.68;101403.63;5050083;28;1933;-80
2023/06/30 08:16:57;;;;;;;;;;;;;;;18.16;63.33;101399.06;5060588;28;1415;-80
2023/06/30 08:19:22;;;;;;;;;;;;;;;18.36;61.38;101404.88;5056317;28;1089;-80
2023/06/30 08:21:47;;;;;;;;;;;;;;;18.27;59.86;101406.63;5051374;28;1288;-80
2023/06/30 08:24:13;;;;;;;;;;;;;;;18.23;61.39;101406.13;5054813;28;1264;-80
2023/06/30 08:26:38;;;;;;;;;;;;;;;18.33;59.94;101406.00;5046426;28;1239;-80
2023/06/30 08:29:03;;;;;;;;;;;;;;;18.34;60.57;101402.38;5060780;28;1180;-80
2023/06/30 08:31:28;;;;;;;;;;;;;;;18.42;60.92;101399.78;5056235;28;1052;-80
2023/06/30 08:33:54;;;;;;;;;;;;;;;18.52;60.52;101397.81;5061749;28;1132;-79
2023/06/30 08:36:19;;;;;;;;;;;;;;;18.58;59.99;101404.22;5053538;28;1967;-80
2023/06/30 08:38:44;;;;;;;;;;;;;;;18.64;60.88;101397.47;5052592;28;1465;-80
2023/06/30 08:41:10;;;;;;;;;;;;;;;18.77;61.11;101397.84;5054268;28;1099;-80
2023/06/30 08:43:38;;;;;;;;;;;;;;;18.90;61.20;101395.53;5052954;28;1109;-80
2023/06/30 08:46:03;;;;;;;;;;;;;;;19.02;58.19;101391.56;5051886;28;1210;-80
2023/06/30 08:48:29;;;;;;;;;;;;;;;19.01;59.10;101389.94;5059761;28;1293;-80
2023/06/30 08:50:55;;;;;;;;;;;;;;;19.13;59.38;101386.97;5061129;28;1061;-80
2023/06/30 08:53:23;;;;;;;;;;;;;;;19.21;59.30;101384.31;5061481;28;1005;-80
2023/06/30 08:55:48;;;;;;;;;;;;;;;19.27;57.32;101378.41;5051724;28;1886;-80
2023/06/30 08:58:13;;;;;;;;;;;;;;;19.34;56.84;101379.38;5061124;28;1237;-80
2023/06/30 09:00:39;;;;;;;;;;;;;;;19.58;56.43;101381.09;5055313;28;1342;-80
2023/06/30 09:03:04;;;;;;;;;;;;;;;19.53;56.72;101378.97;5061285;28;1513;-80
2023/06/30 09:05:32;;;;;;;;;;;;;;;19.52;57.51;101372.06;5053334;28;1753;-80
2023/06/30 09:07:57;;;;;;;;;;;;;;;19.61;54.66;101368.44;5059463;28;1202;-80
2023/06/30 09:10:23;;;;;;;;;;;;;;;19.43;56.46;101378.31;5055422;28;1244;-80
2023/06/30 09:12:50;;;;;;;;;;;;;;;19.56;54.68;101375.19;5061225;28;1357;-80
2023/06/30 09:15:17;;;;;;;;;;;;;;;19.62;56.14;101371.91;5055368;28;1902;-80
2023/06/30 09:17:42;;;;;;;;;;;;;;;19.76;56.21;101370.34;5051647;28;1455;-80
2023/06/30 09:20:08;;;;;;;;;;;;;;;19.87;56.82;101370.78;5051941;28;1271;-80
2023/06/30 09:22:34;;;;;;;;;;;;;;;20.00;55.92;101375.47;5053749;28;1361;-80
2023/06/30 09:24:59;;;;;;;;;;;;;;;20.02;56.36;101368.25;5056208;28;1240;-80
2023/06/30 09:27:25;;;;;;;;;;;;;;;20.13;55.71;101359.94;5053741;28;1562;-80
2023/06/30 09:29:54;;;;;;;;;;;;;;;20.13;55.53;101359.94;5055613;28;1166;-80
2023/06/30 09:32:29;;;;;;;;;;;;;;;20.27;56.75;101357.53;5057848;28;1046;-80
2023/06/30 09:34:54;;;;;;;;;;;;;;;20.48;55.81;101357.75;5055770;28;1970;-80
2023/06/30 09:37:20;;;;;;;;;;;;;;;20.71;53.65;101351.63;5052812;28;1196;-80
2023/06/30 09:39:49;;;;;;;;;;;;;;;20.50;53.54;101360.19;5058076;28;1529;-80
2023/06/30 09:42:15;;;;;;;;;;;;;;;20.41;53.68;101354.13;5055978;28;1217;-80
2023/06/30 09:44:40;;;;;;;;;;;;;;;20.38;55.46;101357.94;5059856;28;1247;-80
2023/06/30 09:47:06;;;;;;;;;;;;;;;20.50;55.20;101354.94;5062888;28;1314;-80
2023/06/30 09:49:35;;;;;;;;;;;;;;;20.51;53.18;101362.66;5054679;28;1571;-80
2023/06/30 09:52:06;;;;;;;;;;;;;;;20.48;53.79;101357.75;5057777;28;1367;-80
2023/06/30 09:54:33;;;;;;;;;;;;;;;20.47;54.52;101350.81;5065765;28;1894;-80
2023/06/30 09:57:08;;;;;;;;;;;;;;;20.48;54.18;101356.94;5058902;28;1316;-80
2023/06/30 09:59:33;;;;;;;;;;;;;;;20.51;54.56;101356.56;5059668;28;1270;-80
2023/06/30 10:01:59;;;;;;;;;;;;;;;20.47;53.95;101361.34;5057706;28;1121;-80
2023/06/30 10:04:25;;;;;;;;;;;;;;;20.42;55.06;101358.41;5064916;28;1196;-80
2023/06/30 10:06:51;;;;;;;;;;;;;;;20.49;54.37;101358.56;5050092;28;1363;-80
2023/06/30 10:09:19;;;;;;;;;;;;;;;20.43;54.61;101352.16;5054946;28;1671;-80
2023/06/30 10:11:47;;;;;;;;;;;;;;;20.46;54.84;101348.34;5054209;28;1360;-79
2023/06/30 10:14:14;;;;;;;;;;;;;;;20.54;55.31;101354.41;5054121;28;1470;-80
2023/06/30 10:16:39;;;;;;;;;;;;;;;20.73;53.78;101360.16;5056065;28;1902;-80
2023/06/30 10:19:05;;;;;;;;;;;;;;;20.66;53.43;101350.34;5054860;28;1448;-80
2023/06/30 10:21:30;;;;;;;;;;;;;;;20.58;54.47;101344.31;5053630;28;1391;-80
2023/06/30 10:23:56;;;;;;;;;;;;;;;20.64;54.72;101341.78;5060486;28;1247;-80
2023/06/30 10:26:23;;;;;;;;;;;;;;;20.72;54.43;101342.72;5053813;28;1323;-80
2023/06/30 10:28:48;;;;;;;;;;;;;;;20.86;53.47;101339.25;5052248;28;2118;-80
2023/06/30 10:31:14;;;;;;;;;;;;;;;20.87;55.41;101330.34;5056717;28;1695;-80
2023/06/30 10:33:39;;;;;;;;;;;;;;;21.03;53.77;101335.47;5057241;28;1286;-80
2023/06/30 10:36:04;;;;;;;;;;;;;;;21.14;53.96;101329.72;5054996;28;1933;-80
2023/06/30 10:38:30;;;;;;;;;;;;;;;21.15;52.93;101333.19;5056107;28;1724;-80
2023/06/30 10:41:12;;;;;;;;;;;;;;;21.23;53.53;101324.38;5055157;28;1270;-80
2023/06/30 10:44:00;;;;;;;;;;;;;;;21.30;53.41;101326.13;5053208;28;1494;-80
2023/06/30 10:46:41;;;;;;;;;;;;;;;21.31;52.95;101313.75;5061605;28;1142;-80
2023/06/30 10:49:06;;;;;;;;;;;;;;;21.27;53.65;101318.53;5054154;28;1451;-80
2023/06/30 10:51:33;;;;;;;;;;;;;;;21.24;49.11;101326.00;5057436;28;1196;-80
2023/06/30 10:53:58;;;;;;;;;;;;;;;21.26;52.32;101324.81;5051519;28;1172;-80
2023/06/30 10:56:24;;;;;;;;;;;;;;;21.40;53.99;101320.56;5056054;28;1902;-80
2023/06/30 10:58:49;;;;;;;;;;;;;;;21.65;52.81;101318.44;5051384;28;1327;-80
2023/06/30 11:01:14;;;;;;;;;;;;;;;21.77;51.21;101321.41;5056097;28;1629;-80
2023/06/30 11:03:55;;;;;;;;;;;;;;;21.92;50.72;101320.34;5051028;28;1333;-80
2023/06/30 11:06:20;;;;;;;;;;;;;;;21.75;51.96;101313.69;5055874;28;1513;-80
2023/06/30 11:08:59;;;;;;;;;;;;;;;21.74;48.84;101318.13;5057366;28;1263;-80
2023/06/30 11:11:24;;;;;;;;;;;;;;;21.73;51.51;101311.22;5050225;28;1392;-80
2023/06/30 11:14:02;;;;;;;;;;;;;;;21.86;51.17;101309.72;5052866;28;1411;-80
2023/06/30 11:16:28;;;;;;;;;;;;;;;21.90;50.34;101311.78;5053569;28;1945;-80
2023/06/30 11:18:58;;;;;;;;;;;;;;;21.97;50.00;101301.31;5050395;28;1350;-80
2023/06/30 11:21:23;;;;;;;;;;;;;;;22.08;51.12;101306.09;5052768;28;1455;-80
2023/06/30 11:23:49;;;;;;;;;;;;;;;22.19;48.72;101305.63;5058380;28;1282;-80
2023/06/30 11:26:18;;;;;;;;;;;;;;;22.07;49.03;101307.06;5055334;28;1275;-80
2023/06/30 11:28:49;;;;;;;;;;;;;;;22.16;50.01;101300.69;5056049;28;1395;-80
2023/06/30 11:31:15;;;;;;;;;;;;;;;22.26;49.40;101305.66;5057531;28;1526;-80
2023/06/30 11:33:41;;;;;;;;;;;;;;;22.12;48.28;101299.44;5062482;28;1135;-80
2023/06/30 11:36:12;;;;;;;;;;;;;;;22.15;47.14;101296.44;5060017;28;1959;-80
2023/06/30 11:38:44;;;;;;;;;;;;;;;21.95;49.02;101300.66;5069757;28;1437;-80
2023/06/30 11:41:09;;;;;;;;;;;;;;;22.06;49.23;101294.88;5060483;28;1256;-80
2023/06/30 11:43:35;;;;;;;;;;;;;;;22.18;48.77;101290.75;5064034;28;1074;-80
2023/06/30 11:46:00;;;;;;;;;;;;;;;22.24;48.66;101287.34;5056873;28;1271;-80
2023/06/30 11:48:27;;;;;;;;;;;;;;;22.47;48.99;101286.31;5056190;28;1293;-80
2023/06/30 11:50:53;;;;;;;;;;;;;;;22.64;48.29;101273.59;5052264;28;1257;-80
2023/06/30 11:53:18;;;;;;;;;;;;;;;22.59;48.21;101276.00;5054623;28;1707;-79
2023/06/30 11:55:44;;;;;;;;;;;;;;;22.77;48.75;101282.47;5050141;28;1959;-80
2023/06/30 11:58:09;;;;;;;;;;;;;;;22.99;47.99;101271.81;5050136;28;1618;-80
2023/06/30 12:00:34;;;;;;;;;;;;;;;23.16;47.82;101275.75;5060783;28;1220;-80
2023/06/30 12:02:59;;;;;;;;;;;;;;;23.26;46.53;101270.91;5055709;28;1139;-80
2023/06/30 12:05:25;;;;;;;;;;;;;;;23.02;45.98;101279.38;5059811;28;1462;-80
2023/06/30 12:07:51;;;;;;;;;;;;;;;22.79;47.77;101275.13;5060508;28;1068;-80
2023/06/30 12:10:17;;;;;;;;;;;;;;;22.96;45.81;101269.56;5065944;28;1351;-80
2023/06/30 12:12:42;;;;;;;;;;;;;;;22.64;47.24;101268.31;5065593;28;1597;-80
2023/06/30 12:15:09;;;;;;;;;;;;;;;22.66;46.83;101267.13;5058304;28;1969;-80
2023/06/30 12:17:36;;;;;;;;;;;;;;;22.68;47.05;101270.38;5059040;28;1132;-80
2023/06/30 12:20:01;;;;;;;;;;;;;;;22.60;47.90;101270.56;5060865;28;1204;-81
2023/06/30 12:22:30;;;;;;;;;;;;;;;22.51;47.55;101266.41;5060406;28;957;-80
2023/06/30 12:24:58;;;;;;;;;;;;;;;22.39;48.08;101270.59;5059615;28;1266;-81
2023/06/30 12:27:27;;;;;;;;;;;;;;;22.38;48.12;101266.31;5061517;28;1085;-80
2023/06/30 12:29:52;;;;;;;;;;;;;;;22.48;48.15;101254.41;5057110;28;1387;-81
2023/06/30 12:32:17;;;;;;;;;;;;;;;22.60;48.04;101253.88;5056672;28;1809;-79
2023/06/30 12:34:46;;;;;;;;;;;;;;;22.70;47.20;101252.50;5062433;28;1967;-80
2023/06/30 12:37:11;;;;;;;;;;;;;;;22.71;47.80;101246.22;5055257;28;1119;-81
2023/06/30 12:39:36;;;;;;;;;;;;;;;22.77;48.08;101253.38;5055236;28;1368;-79
2023/06/30 12:42:02;;;;;;;;;;;;;;;22.74;47.98;101251.09;5055333;28;1258;-80